Terminal Aerodrome Forecast
Issued by NWS North Platte, NE

Home | Current Version | Previous Version | Text Only | Print | Product List | Glossary Off
Versions: 1 2 3 4 5 6 7 8 9 10 11 12 13 14 15

000
FTUS43 KLBF 142327
TAFVTN
TAF
KVTN 142327Z 1500/1524 34015G23KT 1SM -SN OVC015
     FM150200 34016G24KT 5SM -SN BKN030
     FM150300 34016G24KT P6SM BKN030
     FM151000 33015G23KT P6SM FEW250
     FM152100 33017G24KT P6SM FEW050=

USA.gov is the U.S. government's official web portal to all federal, state and local government web resources and services.